sensor_id;sensor_type;location;lat;lon;timestamp;P1;durP1;ratioP1;P2;durP2;ratioP2
41101;SDS011;26845;50.190;19.178;2023-09-19T00:01:04;16.10;;;10.70;;
41101;SDS011;26845;50.190;19.178;2023-09-19T00:04:31;14.60;;;10.70;;
41101;SDS011;26845;50.190;19.178;2023-09-19T00:07:57;15.40;;;10.00;;
41101;SDS011;26845;50.190;19.178;2023-09-19T00:11:23;14.60;;;11.00;;
41101;SDS011;26845;50.190;19.178;2023-09-19T00:14:49;13.80;;;10.30;;
41101;SDS011;26845;50.190;19.178;2023-09-19T00:18:15;12.30;;;9.30;;
41101;SDS011;26845;50.190;19.178;2023-09-19T00:21:41;14.30;;;9.30;;
41101;SDS011;26845;50.190;19.178;2023-09-19T00:25:19;14.00;;;9.80;;
41101;SDS011;26845;50.190;19.178;2023-09-19T00:28:44;11.90;;;10.10;;
41101;SDS011;26845;50.190;19.178;2023-09-19T00:32:10;13.30;;;10.40;;
41101;SDS011;26845;50.190;19.178;2023-09-19T00:35:39;11.20;;;9.10;;
41101;SDS011;26845;50.190;19.178;2023-09-19T00:39:06;14.30;;;10.10;;
41101;SDS011;26845;50.190;19.178;2023-09-19T00:42:31;13.80;;;10.10;;
41101;SDS011;26845;50.190;19.178;2023-09-19T00:45:57;11.80;;;9.70;;
41101;SDS011;26845;50.190;19.178;2023-09-19T00:49:23;14.30;;;10.20;;
41101;SDS011;26845;50.190;19.178;2023-09-19T00:52:30;11.80;;;8.90;;
41101;SDS011;26845;50.190;19.178;2023-09-19T00:55:56;11.90;;;9.30;;
41101;SDS011;26845;50.190;19.178;2023-09-19T00:59:22;11.60;;;8.90;;
41101;SDS011;26845;50.190;19.178;2023-09-19T01:02:51;10.80;;;9.10;;
41101;SDS011;26845;50.190;19.178;2023-09-19T01:06:18;9.90;;;8.10;;
41101;SDS011;26845;50.190;19.178;2023-09-19T01:08:51;10.60;;;8.80;;
41101;SDS011;26845;50.190;19.178;2023-09-19T01:11:31;10.50;;;8.60;;
41101;SDS011;26845;50.190;19.178;2023-09-19T01:14:24;12.50;;;9.20;;
41101;SDS011;26845;50.190;19.178;2023-09-19T01:17:00;12.10;;;8.60;;
41101;SDS011;26845;50.190;19.178;2023-09-19T01:19:51;10.90;;;8.50;;
41101;SDS011;26845;50.190;19.178;2023-09-19T01:22:16;11.70;;;9.10;;
41101;SDS011;26845;50.190;19.178;2023-09-19T01:30:56;12.40;;;9.00;;
41101;SDS011;26845;50.190;19.178;2023-09-19T01:34:21;13.40;;;10.10;;
41101;SDS011;26845;50.190;19.178;2023-09-19T01:37:32;12.10;;;10.10;;
41101;SDS011;26845;50.190;19.178;2023-09-19T01:40:07;12.90;;;8.70;;
41101;SDS011;26845;50.190;19.178;2023-09-19T01:43:33;10.80;;;8.80;;
41101;SDS011;26845;50.190;19.178;2023-09-19T01:46:59;12.10;;;9.00;;
41101;SDS011;26845;50.190;19.178;2023-09-19T01:50:29;10.90;;;9.10;;
41101;SDS011;26845;50.190;19.178;2023-09-19T01:54:00;9.00;;;7.60;;
41101;SDS011;26845;50.190;19.178;2023-09-19T02:00:58;8.60;;;7.80;;
41101;SDS011;26845;50.190;19.178;2023-09-19T02:04:27;9.90;;;7.80;;
41101;SDS011;26845;50.190;19.178;2023-09-19T02:07:52;11.10;;;8.40;;
41101;SDS011;26845;50.190;19.178;2023-09-19T02:11:17;8.90;;;7.50;;
41101;SDS011;26845;50.190;19.178;2023-09-19T02:14:43;10.80;;;8.40;;
41101;SDS011;26845;50.190;19.178;2023-09-19T02:17:49;11.10;;;8.50;;
41101;SDS011;26845;50.190;19.178;2023-09-19T02:20:56;11.00;;;8.30;;
41101;SDS011;26845;50.190;19.178;2023-09-19T02:24:22;10.10;;;8.60;;
41101;SDS011;26845;50.190;19.178;2023-09-19T02:27:48;11.70;;;8.40;;
41101;SDS011;26845;50.190;19.178;2023-09-19T02:31:14;10.50;;;7.90;;
41101;SDS011;26845;50.190;19.178;2023-09-19T02:33:48;10.80;;;8.30;;
41101;SDS011;26845;50.190;19.178;2023-09-19T02:36:22;10.90;;;8.50;;
41101;SDS011;26845;50.190;19.178;2023-09-19T02:38:55;11.80;;;7.90;;
41101;SDS011;26845;50.190;19.178;2023-09-19T02:41:29;12.70;;;9.10;;
41101;SDS011;26845;50.190;19.178;2023-09-19T02:44:03;9.60;;;8.50;;
41101;SDS011;26845;50.190;19.178;2023-09-19T02:46:37;10.90;;;8.70;;
41101;SDS011;26845;50.190;19.178;2023-09-19T02:49:10;10.10;;;8.60;;
41101;SDS011;26845;50.190;19.178;2023-09-19T02:51:44;9.70;;;8.00;;
41101;SDS011;26845;50.190;19.178;2023-09-19T02:54:18;11.40;;;8.00;;
41101;SDS011;26845;50.190;19.178;2023-09-19T02:56:51;11.30;;;8.00;;
41101;SDS011;26845;50.190;19.178;2023-09-19T02:59:25;10.00;;;9.00;;
41101;SDS011;26845;50.190;19.178;2023-09-19T03:01:59;10.50;;;8.50;;
41101;SDS011;26845;50.190;19.178;2023-09-19T03:04:32;13.80;;;9.00;;
41101;SDS011;26845;50.190;19.178;2023-09-19T03:07:07;9.70;;;8.60;;
41101;SDS011;26845;50.190;19.178;2023-09-19T03:09:40;11.10;;;7.80;;
41101;SDS011;26845;50.190;19.178;2023-09-19T03:12:14;13.00;;;9.10;;
41101;SDS011;26845;50.190;19.178;2023-09-19T03:15:14;9.80;;;8.40;;
41101;SDS011;26845;50.190;19.178;2023-09-19T03:18:57;11.90;;;9.20;;
41101;SDS011;26845;50.190;19.178;2023-09-19T03:21:31;11.90;;;9.60;;
41101;SDS011;26845;50.190;19.178;2023-09-19T03:24:05;10.70;;;9.20;;
41101;SDS011;26845;50.190;19.178;2023-09-19T03:26:39;11.30;;;9.70;;
41101;SDS011;26845;50.190;19.178;2023-09-19T03:29:12;11.10;;;9.70;;
41101;SDS011;26845;50.190;19.178;2023-09-19T03:31:46;13.60;;;9.70;;
41101;SDS011;26845;50.190;19.178;2023-09-19T03:34:20;13.10;;;9.60;;
41101;SDS011;26845;50.190;19.178;2023-09-19T03:36:53;13.40;;;9.00;;
41101;SDS011;26845;50.190;19.178;2023-09-19T03:39:27;12.10;;;9.50;;
41101;SDS011;26845;50.190;19.178;2023-09-19T03:42:01;11.60;;;8.60;;
41101;SDS011;26845;50.190;19.178;2023-09-19T03:44:35;12.20;;;9.10;;
41101;SDS011;26845;50.190;19.178;2023-09-19T03:47:08;9.70;;;8.30;;
41101;SDS011;26845;50.190;19.178;2023-09-19T03:49:42;9.60;;;8.40;;
41101;SDS011;26845;50.190;19.178;2023-09-19T03:52:16;10.70;;;8.80;;
41101;SDS011;26845;50.190;19.178;2023-09-19T03:54:49;9.50;;;8.60;;
41101;SDS011;26845;50.190;19.178;2023-09-19T03:57:23;8.40;;;7.50;;
41101;SDS011;26845;50.190;19.178;2023-09-19T03:59:57;11.00;;;8.30;;
41101;SDS011;26845;50.190;19.178;2023-09-19T04:02:31;10.00;;;8.70;;
41101;SDS011;26845;50.190;19.178;2023-09-19T04:05:04;12.00;;;9.20;;
41101;SDS011;26845;50.190;19.178;2023-09-19T04:07:38;10.90;;;8.60;;
41101;SDS011;26845;50.190;19.178;2023-09-19T04:10:12;13.00;;;10.00;;
41101;SDS011;26845;50.190;19.178;2023-09-19T04:12:52;12.80;;;11.20;;
41101;SDS011;26845;50.190;19.178;2023-09-19T04:15:25;13.80;;;11.10;;
41101;SDS011;26845;50.190;19.178;2023-09-19T04:17:59;11.80;;;10.60;;
41101;SDS011;26845;50.190;19.178;2023-09-19T04:20:32;14.00;;;11.00;;
41101;SDS011;26845;50.190;19.178;2023-09-19T04:23:06;11.80;;;10.60;;
41101;SDS011;26845;50.190;19.178;2023-09-19T04:26:51;10.10;;;9.10;;
41101;SDS011;26845;50.190;19.178;2023-09-19T04:30:17;12.60;;;8.90;;
41101;SDS011;26845;50.190;19.178;2023-09-19T04:32:54;13.90;;;9.40;;
41101;SDS011;26845;50.190;19.178;2023-09-19T04:35:28;9.80;;;8.80;;
41101;SDS011;26845;50.190;19.178;2023-09-19T04:38:02;12.80;;;8.90;;
41101;SDS011;26845;50.190;19.178;2023-09-19T04:40:35;10.90;;;9.30;;
41101;SDS011;26845;50.190;19.178;2023-09-19T04:43:09;12.40;;;9.70;;
41101;SDS011;26845;50.190;19.178;2023-09-19T04:45:43;10.20;;;9.20;;
41101;SDS011;26845;50.190;19.178;2023-09-19T04:48:16;11.30;;;9.30;;
41101;SDS011;26845;50.190;19.178;2023-09-19T04:50:50;12.50;;;9.90;;
41101;SDS011;26845;50.190;19.178;2023-09-19T04:53:24;12.40;;;10.20;;
41101;SDS011;26845;50.190;19.178;2023-09-19T04:55:57;10.30;;;9.30;;
41101;SDS011;26845;50.190;19.178;2023-09-19T04:58:31;9.20;;;8.30;;
41101;SDS011;26845;50.190;19.178;2023-09-19T05:00:57;10.40;;;9.40;;
41101;SDS011;26845;50.190;19.178;2023-09-19T05:03:33;14.00;;;10.80;;
41101;SDS011;26845;50.190;19.178;2023-09-19T05:06:05;13.60;;;10.30;;
41101;SDS011;26845;50.190;19.178;2023-09-19T05:08:38;16.70;;;13.10;;
41101;SDS011;26845;50.190;19.178;2023-09-19T05:11:12;15.90;;;11.60;;
41101;SDS011;26845;50.190;19.178;2023-09-19T05:13:46;13.60;;;11.80;;
41101;SDS011;26845;50.190;19.178;2023-09-19T05:16:19;15.60;;;12.10;;
41101;SDS011;26845;50.190;19.178;2023-09-19T05:18:53;16.40;;;12.80;;
41101;SDS011;26845;50.190;19.178;2023-09-19T05:21:27;15.40;;;12.50;;
41101;SDS011;26845;50.190;19.178;2023-09-19T05:24:00;18.00;;;14.10;;
41101;SDS011;26845;50.190;19.178;2023-09-19T05:26:34;14.10;;;11.80;;
41101;SDS011;26845;50.190;19.178;2023-09-19T05:29:08;16.90;;;12.80;;
41101;SDS011;26845;50.190;19.178;2023-09-19T05:31:42;15.90;;;13.70;;
41101;SDS011;26845;50.190;19.178;2023-09-19T05:34:15;19.80;;;13.70;;
41101;SDS011;26845;50.190;19.178;2023-09-19T05:36:49;19.20;;;15.00;;
41101;SDS011;26845;50.190;19.178;2023-09-19T05:40:15;21.00;;;15.20;;
41101;SDS011;26845;50.190;19.178;2023-09-19T05:43:52;18.30;;;14.40;;
41101;SDS011;26845;50.190;19.178;2023-09-19T05:47:18;19.50;;;14.40;;
41101;SDS011;26845;50.190;19.178;2023-09-19T05:50:45;18.90;;;14.70;;
41101;SDS011;26845;50.190;19.178;2023-09-19T05:53:55;16.40;;;13.70;;
41101;SDS011;26845;50.190;19.178;2023-09-19T05:57:20;16.90;;;12.60;;
41101;SDS011;26845;50.190;19.178;2023-09-19T06:00:46;17.10;;;13.90;;
41101;SDS011;26845;50.190;19.178;2023-09-19T06:04:15;17.50;;;13.90;;
41101;SDS011;26845;50.190;19.178;2023-09-19T06:07:23;17.90;;;14.90;;
41101;SDS011;26845;50.190;19.178;2023-09-19T06:10:50;19.80;;;15.70;;
41101;SDS011;26845;50.190;19.178;2023-09-19T06:13:24;21.90;;;15.40;;
41101;SDS011;26845;50.190;19.178;2023-09-19T06:16:00;18.20;;;15.10;;
41101;SDS011;26845;50.190;19.178;2023-09-19T06:18:32;22.40;;;14.70;;
41101;SDS011;26845;50.190;19.178;2023-09-19T06:21:05;17.40;;;13.70;;
41101;SDS011;26845;50.190;19.178;2023-09-19T06:23:39;19.90;;;15.50;;
41101;SDS011;26845;50.190;19.178;2023-09-19T06:26:13;18.70;;;15.20;;
41101;SDS011;26845;50.190;19.178;2023-09-19T06:28:46;23.00;;;16.20;;
41101;SDS011;26845;50.190;19.178;2023-09-19T06:31:20;22.20;;;15.90;;
41101;SDS011;26845;50.190;19.178;2023-09-19T06:33:54;19.60;;;15.90;;
41101;SDS011;26845;50.190;19.178;2023-09-19T06:36:30;18.90;;;14.80;;
41101;SDS011;26845;50.190;19.178;2023-09-19T06:39:04;20.00;;;14.00;;
41101;SDS011;26845;50.190;19.178;2023-09-19T06:41:38;18.30;;;14.50;;
41101;SDS011;26845;50.190;19.178;2023-09-19T06:44:11;16.60;;;13.70;;
41101;SDS011;26845;50.190;19.178;2023-09-19T06:46:45;21.10;;;14.60;;
41101;SDS011;26845;50.190;19.178;2023-09-19T06:49:19;16.50;;;12.90;;
41101;SDS011;26845;50.190;19.178;2023-09-19T06:51:54;16.80;;;12.50;;
41101;SDS011;26845;50.190;19.178;2023-09-19T06:54:26;13.60;;;11.40;;
41101;SDS011;26845;50.190;19.178;2023-09-19T06:57:00;20.00;;;12.70;;
41101;SDS011;26845;50.190;19.178;2023-09-19T06:59:34;17.00;;;13.10;;
41101;SDS011;26845;50.190;19.178;2023-09-19T07:02:07;13.80;;;12.10;;
41101;SDS011;26845;50.190;19.178;2023-09-19T07:04:41;15.00;;;11.50;;
41101;SDS011;26845;50.190;19.178;2023-09-19T07:07:15;13.90;;;10.90;;
41101;SDS011;26845;50.190;19.178;2023-09-19T07:09:48;15.20;;;12.60;;
41101;SDS011;26845;50.190;19.178;2023-09-19T07:12:22;14.10;;;11.40;;
41101;SDS011;26845;50.190;19.178;2023-09-19T07:14:58;14.40;;;11.30;;
41101;SDS011;26845;50.190;19.178;2023-09-19T07:17:32;15.10;;;11.00;;
41101;SDS011;26845;50.190;19.178;2023-09-19T07:20:03;13.00;;;10.10;;
41101;SDS011;26845;50.190;19.178;2023-09-19T07:22:37;11.90;;;9.60;;
41101;SDS011;26845;50.190;19.178;2023-09-19T07:25:11;13.70;;;9.00;;
41101;SDS011;26845;50.190;19.178;2023-09-19T07:27:44;13.80;;;8.80;;
41101;SDS011;26845;50.190;19.178;2023-09-19T07:30:18;10.60;;;8.30;;
41101;SDS011;26845;50.190;19.178;2023-09-19T07:32:52;10.20;;;8.60;;
41101;SDS011;26845;50.190;19.178;2023-09-19T07:35:26;13.40;;;9.10;;
41101;SDS011;26845;50.190;19.178;2023-09-19T07:37:59;11.60;;;8.70;;
41101;SDS011;26845;50.190;19.178;2023-09-19T07:40:33;12.00;;;7.80;;
41101;SDS011;26845;50.190;19.178;2023-09-19T07:43:07;10.60;;;8.10;;
41101;SDS011;26845;50.190;19.178;2023-09-19T07:45:40;12.40;;;8.00;;
41101;SDS011;26845;50.190;19.178;2023-09-19T07:49:12;9.40;;;7.50;;
41101;SDS011;26845;50.190;19.178;2023-09-19T07:51:48;9.80;;;7.10;;
41101;SDS011;26845;50.190;19.178;2023-09-19T07:54:22;11.40;;;8.00;;
41101;SDS011;26845;50.190;19.178;2023-09-19T07:58:04;8.50;;;7.00;;
41101;SDS011;26845;50.190;19.178;2023-09-19T08:00:40;8.80;;;7.10;;
41101;SDS011;26845;50.190;19.178;2023-09-19T08:03:14;9.90;;;6.60;;
41101;SDS011;26845;50.190;19.178;2023-09-19T08:05:47;9.40;;;5.50;;
41101;SDS011;26845;50.190;19.178;2023-09-19T08:08:34;8.50;;;5.70;;
41101;SDS011;26845;50.190;19.178;2023-09-19T08:11:07;8.80;;;5.70;;
41101;SDS011;26845;50.190;19.178;2023-09-19T08:13:41;9.10;;;5.40;;
41101;SDS011;26845;50.190;19.178;2023-09-19T08:16:15;8.80;;;4.80;;
41101;SDS011;26845;50.190;19.178;2023-09-19T08:18:48;7.20;;;5.20;;
41101;SDS011;26845;50.190;19.178;2023-09-19T08:21:22;6.90;;;5.20;;
41101;SDS011;26845;50.190;19.178;2023-09-19T08:23:56;7.60;;;5.10;;
41101;SDS011;26845;50.190;19.178;2023-09-19T08:26:30;9.00;;;4.40;;
41101;SDS011;26845;50.190;19.178;2023-09-19T08:29:03;6.80;;;4.90;;
41101;SDS011;26845;50.190;19.178;2023-09-19T08:31:37;8.00;;;4.50;;
41101;SDS011;26845;50.190;19.178;2023-09-19T08:34:11;6.90;;;4.80;;
41101;SDS011;26845;50.190;19.178;2023-09-19T08:36:44;4.90;;;4.00;;
41101;SDS011;26845;50.190;19.178;2023-09-19T08:39:18;5.80;;;3.80;;
41101;SDS011;26845;50.190;19.178;2023-09-19T08:41:58;8.30;;;4.00;;
41101;SDS011;26845;50.190;19.178;2023-09-19T08:44:31;6.30;;;3.60;;
41101;SDS011;26845;50.190;19.178;2023-09-19T08:47:11;5.60;;;3.50;;
41101;SDS011;26845;50.190;19.178;2023-09-19T08:52:28;10.60;;;4.00;;
41101;SDS011;26845;50.190;19.178;2023-09-19T08:54:58;4.50;;;3.60;;
41101;SDS011;26845;50.190;19.178;2023-09-19T08:57:33;6.50;;;3.80;;
41101;SDS011;26845;50.190;19.178;2023-09-19T09:00:06;6.70;;;3.80;;
41101;SDS011;26845;50.190;19.178;2023-09-19T09:02:39;6.60;;;4.40;;
41101;SDS011;26845;50.190;19.178;2023-09-19T09:05:13;7.90;;;3.60;;
41101;SDS011;26845;50.190;19.178;2023-09-19T09:07:47;6.00;;;4.50;;
41101;SDS011;26845;50.190;19.178;2023-09-19T09:10:23;8.30;;;4.30;;
41101;SDS011;26845;50.190;19.178;2023-09-19T09:12:54;4.10;;;3.70;;
41101;SDS011;26845;50.190;19.178;2023-09-19T09:15:28;7.50;;;4.70;;
41101;SDS011;26845;50.190;19.178;2023-09-19T09:18:02;5.80;;;3.90;;
41101;SDS011;26845;50.190;19.178;2023-09-19T09:20:35;5.00;;;4.20;;
41101;SDS011;26845;50.190;19.178;2023-09-19T09:23:09;6.00;;;3.90;;
41101;SDS011;26845;50.190;19.178;2023-09-19T09:25:49;4.50;;;4.00;;
41101;SDS011;26845;50.190;19.178;2023-09-19T09:28:26;5.20;;;4.40;;
41101;SDS011;26845;50.190;19.178;2023-09-19T09:30:57;4.40;;;4.00;;
41101;SDS011;26845;50.190;19.178;2023-09-19T09:33:36;5.10;;;4.00;;
41101;SDS011;26845;50.190;19.178;2023-09-19T09:36:10;5.20;;;3.80;;
41101;SDS011;26845;50.190;19.178;2023-09-19T09:38:45;5.40;;;3.50;;
41101;SDS011;26845;50.190;19.178;2023-09-19T09:41:18;4.60;;;3.60;;
41101;SDS011;26845;50.190;19.178;2023-09-19T09:43:51;4.90;;;3.30;;
41101;SDS011;26845;50.190;19.178;2023-09-19T09:46:25;4.30;;;3.10;;
41101;SDS011;26845;50.190;19.178;2023-09-19T09:49:02;6.10;;;3.00;;
41101;SDS011;26845;50.190;19.178;2023-09-19T09:51:35;6.40;;;3.90;;
41101;SDS011;26845;50.190;19.178;2023-09-19T09:54:13;5.50;;;3.80;;
41101;SDS011;26845;50.190;19.178;2023-09-19T09:57:11;3.80;;;3.40;;
41101;SDS011;26845;50.190;19.178;2023-09-19T10:00:10;6.00;;;4.00;;
41101;SDS011;26845;50.190;19.178;2023-09-19T10:06:13;6.90;;;4.80;;
41101;SDS011;26845;50.190;19.178;2023-09-19T10:09:10;10.90;;;5.60;;
41101;SDS011;26845;50.190;19.178;2023-09-19T10:12:19;8.10;;;5.60;;
41101;SDS011;26845;50.190;19.178;2023-09-19T10:14:55;7.00;;;4.90;;
41101;SDS011;26845;50.190;19.178;2023-09-19T10:17:29;9.50;;;4.80;;
41101;SDS011;26845;50.190;19.178;2023-09-19T10:20:03;7.00;;;5.10;;
41101;SDS011;26845;50.190;19.178;2023-09-19T10:22:36;7.30;;;4.20;;
41101;SDS011;26845;50.190;19.178;2023-09-19T10:25:10;6.20;;;4.40;;
41101;SDS011;26845;50.190;19.178;2023-09-19T10:27:44;10.40;;;4.50;;
41101;SDS011;26845;50.190;19.178;2023-09-19T10:30:17;6.30;;;4.00;;
41101;SDS011;26845;50.190;19.178;2023-09-19T10:32:56;4.70;;;4.30;;
41101;SDS011;26845;50.190;19.178;2023-09-19T10:35:25;9.10;;;4.40;;
41101;SDS011;26845;50.190;19.178;2023-09-19T10:38:01;7.80;;;4.20;;
41101;SDS011;26845;50.190;19.178;2023-09-19T10:40:35;7.50;;;3.70;;
41101;SDS011;26845;50.190;19.178;2023-09-19T10:43:13;7.50;;;4.30;;
41101;SDS011;26845;50.190;19.178;2023-09-19T10:45:45;6.60;;;4.40;;
41101;SDS011;26845;50.190;19.178;2023-09-19T10:48:19;5.10;;;4.20;;
41101;SDS011;26845;50.190;19.178;2023-09-19T10:53:27;8.40;;;4.20;;
41101;SDS011;26845;50.190;19.178;2023-09-19T10:56:00;6.60;;;4.80;;
41101;SDS011;26845;50.190;19.178;2023-09-19T10:58:34;9.00;;;5.10;;
41101;SDS011;26845;50.190;19.178;2023-09-19T11:01:08;8.60;;;4.60;;
41101;SDS011;26845;50.190;19.178;2023-09-19T11:03:41;6.50;;;4.20;;
41101;SDS011;26845;50.190;19.178;2023-09-19T11:06:16;5.70;;;4.10;;
41101;SDS011;26845;50.190;19.178;2023-09-19T11:08:56;7.70;;;4.30;;
41101;SDS011;26845;50.190;19.178;2023-09-19T11:11:43;7.00;;;4.50;;
41101;SDS011;26845;50.190;19.178;2023-09-19T11:29:24;7.80;;;4.30;;
41101;SDS011;26845;50.190;19.178;2023-09-19T11:46:33;9.10;;;3.80;;
41101;SDS011;26845;50.190;19.178;2023-09-19T11:49:07;5.30;;;3.50;;
41101;SDS011;26845;50.190;19.178;2023-09-19T11:51:41;4.90;;;3.10;;
41101;SDS011;26845;50.190;19.178;2023-09-19T11:54:14;5.70;;;3.90;;
41101;SDS011;26845;50.190;19.178;2023-09-19T11:56:49;5.70;;;3.50;;
41101;SDS011;26845;50.190;19.178;2023-09-19T11:59:25;4.60;;;3.80;;
41101;SDS011;26845;50.190;19.178;2023-09-19T12:01:56;6.10;;;3.30;;
41101;SDS011;26845;50.190;19.178;2023-09-19T12:04:39;5.20;;;3.40;;
41101;SDS011;26845;50.190;19.178;2023-09-19T12:07:13;5.10;;;2.70;;
41101;SDS011;26845;50.190;19.178;2023-09-19T12:09:48;4.80;;;3.00;;
41101;SDS011;26845;50.190;19.178;2023-09-19T12:14:54;4.00;;;3.10;;
41101;SDS011;26845;50.190;19.178;2023-09-19T12:17:40;4.10;;;3.30;;
41101;SDS011;26845;50.190;19.178;2023-09-19T12:20:13;5.30;;;3.30;;
41101;SDS011;26845;50.190;19.178;2023-09-19T12:22:46;5.60;;;3.00;;
41101;SDS011;26845;50.190;19.178;2023-09-19T12:25:20;3.40;;;3.00;;
41101;SDS011;26845;50.190;19.178;2023-09-19T12:27:57;3.40;;;2.60;;
41101;SDS011;26845;50.190;19.178;2023-09-19T12:30:28;6.70;;;3.00;;
41101;SDS011;26845;50.190;19.178;2023-09-19T12:33:02;4.90;;;2.90;;
41101;SDS011;26845;50.190;19.178;2023-09-19T12:35:35;4.80;;;3.20;;
41101;SDS011;26845;50.190;19.178;2023-09-19T12:38:09;4.10;;;2.90;;
41101;SDS011;26845;50.190;19.178;2023-09-19T12:40:42;3.90;;;3.30;;
41101;SDS011;26845;50.190;19.178;2023-09-19T12:43:16;3.70;;;2.70;;
41101;SDS011;26845;50.190;19.178;2023-09-19T12:45:50;5.40;;;3.30;;
41101;SDS011;26845;50.190;19.178;2023-09-19T12:48:24;4.70;;;3.50;;
41101;SDS011;26845;50.190;19.178;2023-09-19T12:51:04;4.40;;;3.20;;
41101;SDS011;26845;50.190;19.178;2023-09-19T12:53:34;4.30;;;3.10;;
41101;SDS011;26845;50.190;19.178;2023-09-19T12:56:08;4.10;;;3.20;;
41101;SDS011;26845;50.190;19.178;2023-09-19T13:01:24;5.40;;;3.20;;
41101;SDS011;26845;50.190;19.178;2023-09-19T13:04:13;6.50;;;3.40;;
41101;SDS011;26845;50.190;19.178;2023-09-19T13:06:44;4.60;;;3.50;;
41101;SDS011;26845;50.190;19.178;2023-09-19T13:09:18;5.80;;;3.60;;
41101;SDS011;26845;50.190;19.178;2023-09-19T13:11:51;8.00;;;4.00;;
41101;SDS011;26845;50.190;19.178;2023-09-19T13:14:25;5.10;;;3.30;;
41101;SDS011;26845;50.190;19.178;2023-09-19T13:17:02;4.50;;;3.30;;
41101;SDS011;26845;50.190;19.178;2023-09-19T13:19:39;4.70;;;3.10;;
41101;SDS011;26845;50.190;19.178;2023-09-19T13:25:19;4.30;;;2.80;;
41101;SDS011;26845;50.190;19.178;2023-09-19T13:27:50;4.10;;;3.10;;
41101;SDS011;26845;50.190;19.178;2023-09-19T13:30:24;5.80;;;3.60;;
41101;SDS011;26845;50.190;19.178;2023-09-19T13:33:10;4.40;;;3.00;;
41101;SDS011;26845;50.190;19.178;2023-09-19T13:35:43;4.40;;;3.00;;
41101;SDS011;26845;50.190;19.178;2023-09-19T13:38:16;6.70;;;3.30;;
41101;SDS011;26845;50.190;19.178;2023-09-19T13:41:26;4.00;;;3.00;;
41101;SDS011;26845;50.190;19.178;2023-09-19T13:43:54;9.00;;;3.20;;
41101;SDS011;26845;50.190;19.178;2023-09-19T13:46:41;3.80;;;2.80;;
41101;SDS011;26845;50.190;19.178;2023-09-19T13:49:11;3.40;;;2.90;;
41101;SDS011;26845;50.190;19.178;2023-09-19T13:51:51;6.30;;;2.50;;
41101;SDS011;26845;50.190;19.178;2023-09-19T13:54:25;2.80;;;2.40;;
41101;SDS011;26845;50.190;19.178;2023-09-19T13:56:59;3.80;;;2.70;;
41101;SDS011;26845;50.190;19.178;2023-09-19T13:59:33;3.90;;;2.60;;
41101;SDS011;26845;50.190;19.178;2023-09-19T14:01:59;4.10;;;1.90;;
41101;SDS011;26845;50.190;19.178;2023-09-19T14:04:25;4.30;;;2.20;;
41101;SDS011;26845;50.190;19.178;2023-09-19T14:06:51;2.80;;;2.10;;
41101;SDS011;26845;50.190;19.178;2023-09-19T14:09:17;5.50;;;2.30;;
41101;SDS011;26845;50.190;19.178;2023-09-19T14:11:45;4.70;;;2.10;;
41101;SDS011;26845;50.190;19.178;2023-09-19T14:14:13;2.30;;;2.10;;
41101;SDS011;26845;50.190;19.178;2023-09-19T14:16:39;3.80;;;2.30;;
41101;SDS011;26845;50.190;19.178;2023-09-19T14:19:07;2.50;;;2.00;;
41101;SDS011;26845;50.190;19.178;2023-09-19T14:21:33;3.40;;;2.10;;
41101;SDS011;26845;50.190;19.178;2023-09-19T14:24:01;4.50;;;2.30;;
41101;SDS011;26845;50.190;19.178;2023-09-19T14:26:27;6.00;;;2.10;;
41101;SDS011;26845;50.190;19.178;2023-09-19T14:28:54;2.00;;;1.40;;
41101;SDS011;26845;50.190;19.178;2023-09-19T14:31:20;4.80;;;1.40;;
41101;SDS011;26845;50.190;19.178;2023-09-19T14:33:52;2.10;;;1.20;;
41101;SDS011;26845;50.190;19.178;2023-09-19T14:37:12;4.00;;;1.60;;
41101;SDS011;26845;50.190;19.178;2023-09-19T14:40:19;2.10;;;1.60;;
41101;SDS011;26845;50.190;19.178;2023-09-19T14:43:25;3.30;;;1.80;;
41101;SDS011;26845;50.190;19.178;2023-09-19T14:46:10;2.20;;;1.50;;
41101;SDS011;26845;50.190;19.178;2023-09-19T14:49:13;3.20;;;1.60;;
41101;SDS011;26845;50.190;19.178;2023-09-19T14:52:57;2.30;;;1.90;;
41101;SDS011;26845;50.190;19.178;2023-09-19T14:55:36;2.10;;;1.60;;
41101;SDS011;26845;50.190;19.178;2023-09-19T14:58:08;2.80;;;2.30;;
41101;SDS011;26845;50.190;19.178;2023-09-19T15:01:33;2.50;;;1.80;;
41101;SDS011;26845;50.190;19.178;2023-09-19T15:04:59;4.60;;;2.20;;
41101;SDS011;26845;50.190;19.178;2023-09-19T15:08:20;5.90;;;2.00;;
41101;SDS011;26845;50.190;19.178;2023-09-19T15:11:26;4.80;;;2.10;;
41101;SDS011;26845;50.190;19.178;2023-09-19T15:14:52;6.00;;;2.40;;
41101;SDS011;26845;50.190;19.178;2023-09-19T15:18:18;3.50;;;1.90;;
41101;SDS011;26845;50.190;19.178;2023-09-19T15:21:44;1.90;;;1.80;;
41101;SDS011;26845;50.190;19.178;2023-09-19T15:24:32;3.70;;;2.00;;
41101;SDS011;26845;50.190;19.178;2023-09-19T15:27:43;5.60;;;2.50;;
41101;SDS011;26845;50.190;19.178;2023-09-19T15:31:10;2.70;;;1.90;;
41101;SDS011;26845;50.190;19.178;2023-09-19T15:33:39;2.10;;;2.00;;
41101;SDS011;26845;50.190;19.178;2023-09-19T15:39:19;2.30;;;1.90;;
41101;SDS011;26845;50.190;19.178;2023-09-19T15:42:05;4.90;;;2.00;;
41101;SDS011;26845;50.190;19.178;2023-09-19T15:45:08;3.30;;;2.10;;
41101;SDS011;26845;50.190;19.178;2023-09-19T15:48:36;5.60;;;2.20;;
41101;SDS011;26845;50.190;19.178;2023-09-19T15:51:03;3.80;;;2.10;;
41101;SDS011;26845;50.190;19.178;2023-09-19T15:53:44;7.20;;;2.50;;
41101;SDS011;26845;50.190;19.178;2023-09-19T15:56:17;3.50;;;2.00;;
41101;SDS011;26845;50.190;19.178;2023-09-19T15:59:42;4.70;;;2.60;;
41101;SDS011;26845;50.190;19.178;2023-09-19T16:02:12;5.20;;;3.00;;
41101;SDS011;26845;50.190;19.178;2023-09-19T16:05:38;3.30;;;2.50;;
41101;SDS011;26845;50.190;19.178;2023-09-19T16:08:24;2.80;;;2.60;;
41101;SDS011;26845;50.190;19.178;2023-09-19T16:10:56;4.00;;;2.20;;
41101;SDS011;26845;50.190;19.178;2023-09-19T16:13:22;5.10;;;2.50;;
41101;SDS011;26845;50.190;19.178;2023-09-19T16:15:57;3.30;;;2.30;;
41101;SDS011;26845;50.190;19.178;2023-09-19T16:18:47;3.00;;;2.40;;
41101;SDS011;26845;50.190;19.178;2023-09-19T16:21:36;2.90;;;2.00;;
41101;SDS011;26845;50.190;19.178;2023-09-19T16:24:37;3.20;;;2.10;;
41101;SDS011;26845;50.190;19.178;2023-09-19T16:28:02;4.90;;;2.00;;
41101;SDS011;26845;50.190;19.178;2023-09-19T16:30:48;3.50;;;2.20;;
41101;SDS011;26845;50.190;19.178;2023-09-19T16:33:27;3.30;;;2.30;;
41101;SDS011;26845;50.190;19.178;2023-09-19T16:36:12;3.00;;;2.50;;
41101;SDS011;26845;50.190;19.178;2023-09-19T16:38:40;5.20;;;2.40;;
41101;SDS011;26845;50.190;19.178;2023-09-19T16:41:10;3.70;;;2.70;;
41101;SDS011;26845;50.190;19.178;2023-09-19T16:43:41;4.70;;;2.70;;
41101;SDS011;26845;50.190;19.178;2023-09-19T16:46:09;2.90;;;2.60;;
41101;SDS011;26845;50.190;19.178;2023-09-19T16:48:39;2.70;;;2.30;;
41101;SDS011;26845;50.190;19.178;2023-09-19T16:51:41;2.90;;;2.60;;
41101;SDS011;26845;50.190;19.178;2023-09-19T16:54:15;3.20;;;2.70;;
41101;SDS011;26845;50.190;19.178;2023-09-19T16:56:41;2.90;;;2.70;;
41101;SDS011;26845;50.190;19.178;2023-09-19T16:59:12;3.60;;;2.80;;
41101;SDS011;26845;50.190;19.178;2023-09-19T17:01:48;2.80;;;2.60;;
41101;SDS011;26845;50.190;19.178;2023-09-19T17:04:14;3.80;;;2.80;;
41101;SDS011;26845;50.190;19.178;2023-09-19T17:06:41;4.30;;;2.90;;